Stations météo

réclame
Mon MeteoGroup
Tarvisio, Italie (16040): Température de l'air & dewpoint: 11.07.2018 13:00:00 - 17.07.2018 13:00:00 (CEST)Tarvisio, Italie (16040): Vitesse du vent: 11.07.2018 13:00:00 - 17.07.2018 13:00:00 (CEST)Tarvisio, Italie (16040): Direction du vent: 11.07.2018 13:00:00 - 17.07.2018 13:00:00 (CEST)Tarvisio, Italie (16040): visibility: 11.07.2018 13:00:00 - 17.07.2018 13:00:00 (CEST)
Date & Time tt [°C] td [°C] ff [km/h] ff [knt] dd vv [km]
17.07.2018 13:00:00 21,0 11,0 4 2 E 10
17.07.2018 12:00:00 20,0 14,0 8 4 SE 10
17.07.2018 11:00:00 17,6 13,5 5 3 SSE 15
17.07.2018 10:00:00 17,0 14,0 2 1 ESE 10
17.07.2018 09:00:00 16,0 13,0 4 2 SSE 10
17.07.2018 08:00:00 14,2 12,2 0 0 N 15
17.07.2018 07:00:00 - - - - - -
17.07.2018 06:00:00 - - - - - -
17.07.2018 05:00:00 - - - - - -
17.07.2018 04:00:00 - - - - - -
17.07.2018 03:00:00 - - - - - -
17.07.2018 02:00:00 - - - - - -
17.07.2018 01:00:00 - - - - - -
17.07.2018 00:00:00 - - - - - -
16.07.2018 23:00:00 - - - - - -
16.07.2018 22:00:00 - - - - - -
16.07.2018 21:00:00 - - - - - -
16.07.2018 20:00:00 18,0 14,5 2 1 S 15
16.07.2018 19:00:00 19,0 14,0 4 2 W 10
16.07.2018 18:00:00 19,0 14,0 13 7 NW 10
16.07.2018 17:00:00 22,0 16,7 9 5 E 10
16.07.2018 16:00:00 24,0 16,0 4 2 S 10
16.07.2018 15:00:00 24,0 14,0 4 2 NE 10
16.07.2018 14:00:00 24,0 15,8 4 2 E 15
16.07.2018 13:00:00 23,0 16,0 9 5 E 10
16.07.2018 12:00:00 22,0 16,0 9 5 E 10
16.07.2018 11:00:00 19,2 14,9 5 3 SE 10
16.07.2018 10:00:00 16,0 14,0 4 2 SE 10
16.07.2018 09:00:00 15,0 13,0 0 0 N 10
16.07.2018 08:00:00 14,8 13,0 0 0 N 10
16.07.2018 07:00:00 - - - - - -
16.07.2018 06:00:00 - - - - - -
16.07.2018 05:00:00 - - - - - -
16.07.2018 04:00:00 - - - - - -
16.07.2018 03:00:00 - - - - - -
16.07.2018 02:00:00 - - - - - -
16.07.2018 01:00:00 - - - - - -
16.07.2018 00:00:00 - - - - - -
15.07.2018 23:00:00 - - - - - -
15.07.2018 22:00:00 - - - - - -
15.07.2018 21:00:00 - - - - - -
15.07.2018 20:00:00 17,6 15,6 0 0 N 15
15.07.2018 19:00:00 17,0 15,0 0 0 N 10
15.07.2018 18:00:00 18,0 15,0 4 2 WSW 10
15.07.2018 17:00:00 20,0 15,4 4 2 ENE 12
15.07.2018 16:00:00 21,0 15,0 5 3 NNE 10
15.07.2018 15:00:00 23,0 16,0 9 5 NE 10
15.07.2018 14:00:00 22,0 15,1 9 5 NNE 15
15.07.2018 13:00:00 21,0 14,0 5 3 ESE 10
15.07.2018 12:00:00 19,0 15,0 0 0 N 10
15.07.2018 11:00:00 18,8 14,3 5 3 SE 15
15.07.2018 10:00:00 17,0 14,0 4 2 SE 10
15.07.2018 09:00:00 16,0 14,0 0 0 N 10
15.07.2018 08:00:00 15,2 13,6 0 0 N 15
15.07.2018 07:00:00 - - - - - -
15.07.2018 06:00:00 - - - - - -
15.07.2018 05:00:00 - - - - - -
15.07.2018 04:00:00 - - - - - -
15.07.2018 03:00:00 - - - - - -
15.07.2018 02:00:00 - - - - - -
15.07.2018 01:00:00 - - - - - -
15.07.2018 00:00:00 - - - - - -
14.07.2018 23:00:00 - - - - - -
14.07.2018 22:00:00 - - - - - -
14.07.2018 21:00:00 - - - - - -
14.07.2018 20:00:00 21,2 16,2 0 0 N 15
14.07.2018 19:00:00 24,0 16,0 4 2 SW 10
14.07.2018 18:00:00 23,0 16,0 4 2 ESE 10
14.07.2018 17:00:00 23,8 16,4 9 5 ESE 15
14.07.2018 16:00:00 23,0 13,0 8 4 SSE 10
14.07.2018 15:00:00 21,0 14,0 15 8 SSE 10
14.07.2018 14:00:00 22,4 17,5 2 1 NW 15
14.07.2018 13:00:00 24,0 16,0 4 2 ENE 10
14.07.2018 12:00:00 24,0 16,0 5 3 ESE 10
14.07.2018 11:00:00 22,0 15,1 4 2 SE 15
14.07.2018 10:00:00 21,0 15,0 5 3 SE 10
14.07.2018 09:00:00 19,0 15,0 4 2 WNW 10
14.07.2018 08:00:00 15,4 13,4 2 1 SSE 15
14.07.2018 07:00:00 - - - - - -
14.07.2018 06:00:00 - - - - - -
14.07.2018 05:00:00 - - - - - -
14.07.2018 04:00:00 - - - - - -
14.07.2018 03:00:00 - - - - - -
14.07.2018 02:00:00 - - - - - -
14.07.2018 01:00:00 - - - - - -
14.07.2018 00:00:00 - - - - - -
13.07.2018 23:00:00 - - - - - -
13.07.2018 22:00:00 - - - - - -
13.07.2018 21:00:00 - - - - - -
13.07.2018 20:00:00 20,2 14,3 0 0 N 15
13.07.2018 19:00:00 21,0 14,0 2 1 NE 10
13.07.2018 18:00:00 22,0 13,0 0 0 N 10
13.07.2018 17:00:00 24,8 11,0 5 3 ESE 15
13.07.2018 16:00:00 25,0 12,0 8 4 E 10
13.07.2018 15:00:00 24,0 12,0 5 3 SSW 10
13.07.2018 14:00:00 23,8 11,5 4 2 ESE 15
13.07.2018 13:00:00 22,0 13,0 5 3 ESE 10
13.07.2018 12:00:00 21,0 15,0 5 3 S 10
13.07.2018 11:00:00 18,0 14,3 8 4 S 15
13.07.2018 10:00:00 16,0 13,0 2 1 SE 10
13.07.2018 09:00:00 14,0 12,0 2 1 SE 10
13.07.2018 08:00:00 13,2 11,4 2 1 SSE 14
13.07.2018 07:00:00 - - - - - -
13.07.2018 06:00:00 - - - - - -
13.07.2018 05:00:00 - - - - - -
13.07.2018 04:00:00 - - - - - -
13.07.2018 03:00:00 - - - - - -
13.07.2018 02:00:00 - - - - - -
13.07.2018 01:00:00 - - - - - -
13.07.2018 00:00:00 - - - - - -
12.07.2018 23:00:00 - - - - - -
12.07.2018 22:00:00 - - - - - -
12.07.2018 21:00:00 - - - - - -
12.07.2018 20:00:00 19,6 15,3 9 5 E 15
12.07.2018 19:00:00 21,0 16,0 4 2 E 10
12.07.2018 18:00:00 - - - - - -
12.07.2018 17:00:00 22,2 15,1 5 3 ESE 15
12.07.2018 16:00:00 23,0 16,0 5 3 E 10
12.07.2018 15:00:00 23,0 16,0 8 4 E 10
12.07.2018 14:00:00 21,2 14,6 9 5 E 15
12.07.2018 13:00:00 20,0 14,0 8 4 SE 10
12.07.2018 12:00:00 17,0 13,0 4 2 E 10
12.07.2018 11:00:00 17,0 13,1 5 3 E 15
12.07.2018 10:00:00 14,0 12,0 2 1 SE 10
12.07.2018 09:00:00 13,0 11,0 4 2 SSE 10
12.07.2018 08:00:00 12,6 10,8 0 0 N 10
12.07.2018 07:00:00 - - - - - -
12.07.2018 06:00:00 - - - - - -
12.07.2018 05:00:00 - - - - - -
12.07.2018 04:00:00 - - - - - -
12.07.2018 03:00:00 - - - - - -
12.07.2018 02:00:00 - - - - - -
12.07.2018 01:00:00 - - - - - -
12.07.2018 00:00:00 - - - - - -
11.07.2018 23:00:00 - - - - - -
11.07.2018 22:00:00 - - - - - -
11.07.2018 21:00:00 - - - - - -
11.07.2018 20:00:00 15,2 13,6 5 3 NE 10
11.07.2018 19:00:00 16,0 14,0 4 2 ENE 10
11.07.2018 18:00:00 16,0 15,0 2 1 ESE 10
11.07.2018 17:00:00 17,8 13,7 5 3 ENE 15
11.07.2018 16:00:00 18,0 13,0 8 4 S 10
11.07.2018 15:00:00 18,0 14,0 5 3 E 10
11.07.2018 14:00:00 17,8 13,7 5 3 ESE 15
11.07.2018 13:00:00 18,0 14,0 8 4 ESE 10

tt = Température de l'air
td = dewpoint
ff = Vitesse du vent
dd = Direction du vent
vv = visibility

stations d'obs. à proximité